Time;durP1;ratioP1;P1;durP2;ratioP2;P2;SDS_P1;SDS_P2;PMS_P1;PMS_P2;Temp;Humidity;BMP_temperature;BMP_pressure;BME280_temperature;BME280_humidity;BME280_pressure;Samples;Min_cycle;Max_cycle;Signal;HPM_P1;HPM_P2
2023/09/15 00:00:51;;;;;;;6.17;3.27;;;;;;;;;;5009023;28;20210;-47
2023/09/15 00:03:17;;;;;;;3.80;3.50;;;;;;;;;;5007565;28;20180;-48
2023/09/15 00:05:43;;;;;;;4.37;3.33;;;;;;;;;;5008550;28;20190;-47
2023/09/15 00:08:10;;;;;;;7.87;3.17;;;;;;;;;;4989813;28;20178;-47
2023/09/15 00:10:39;;;;;;;4.80;3.10;;;;;;;;;;5007881;28;20246;-48
2023/09/15 00:13:06;;;;;;;3.10;2.90;;;;;;;;;;5007538;28;20289;-48
2023/09/15 00:15:32;;;;;;;3.57;3.00;;;;;;;;;;5006491;28;20266;-47
2023/09/15 00:17:59;;;;;;;3.37;3.07;;;;;;;;;;4997075;28;20665;-47
2023/09/15 00:20:25;;;;;;;3.70;3.40;;;;;;;;;;5004155;28;20211;-47
2023/09/15 00:22:52;;;;;;;3.43;3.13;;;;;;;;;;5006885;28;20604;-47
2023/09/15 00:25:22;;;;;;;3.27;3.03;;;;;;;;;;5008742;28;20604;-48
2023/09/15 00:27:52;;;;;;;3.70;3.40;;;;;;;;;;5008371;28;20237;-48
2023/09/15 00:30:19;;;;;;;3.20;2.90;;;;;;;;;;5006461;28;20214;-49
2023/09/15 00:32:47;;;;;;;3.30;3.00;;;;;;;;;;5006708;28;20198;-49
2023/09/15 00:35:16;;;;;;;3.87;3.30;;;;;;;;;;5000775;28;20182;-48
2023/09/15 00:37:43;;;;;;;3.00;2.80;;;;;;;;;;5006920;28;20178;-49
2023/09/15 00:40:10;;;;;;;3.43;3.13;;;;;;;;;;5008430;28;20267;-48
2023/09/15 00:42:42;;;;;;;3.10;2.90;;;;;;;;;;5007460;28;20245;-48
2023/09/15 00:45:14;;;;;;;3.50;3.03;;;;;;;;;;5006295;28;20178;-48
2023/09/15 00:47:43;;;;;;;3.50;2.93;;;;;;;;;;5007937;28;20677;-49
2023/09/15 00:50:10;;;;;;;4.73;2.80;;;;;;;;;;5007953;28;20214;-48
2023/09/15 00:52:36;;;;;;;5.53;3.30;;;;;;;;;;5006632;28;20210;-48
2023/09/15 00:55:04;;;;;;;3.20;2.77;;;;;;;;;;5006716;28;20603;-47
2023/09/15 00:57:30;;;;;;;3.03;2.70;;;;;;;;;;5007142;28;20532;-47
2023/09/15 00:59:57;;;;;;;7.67;3.87;;;;;;;;;;4988594;28;20522;-47
2023/09/15 01:02:23;;;;;;;3.90;3.50;;;;;;;;;;5006889;28;20182;-48
2023/09/15 01:04:49;;;;;;;3.50;2.97;;;;;;;;;;5005558;28;20398;-47
2023/09/15 01:07:15;;;;;;;3.30;3.00;;;;;;;;;;5006617;28;20186;-48
2023/09/15 01:09:42;;;;;;;3.37;3.07;;;;;;;;;;5006439;28;20653;-47
2023/09/15 01:12:08;;;;;;;3.30;3.00;;;;;;;;;;5005569;28;20508;-47
2023/09/15 01:14:35;;;;;;;3.47;3.03;;;;;;;;;;5007033;28;20608;-48
2023/09/15 01:17:05;;;;;;;3.30;3.00;;;;;;;;;;5008133;28;20269;-47
2023/09/15 01:19:38;;;;;;;4.07;3.20;;;;;;;;;;5002443;28;20539;-48
2023/09/15 01:22:05;;;;;;;2.77;2.57;;;;;;;;;;5005552;28;20186;-49
2023/09/15 01:24:50;;;;;;;3.37;3.00;;;;;;;;;;5004635;28;20201;-48
2023/09/15 01:27:22;;;;;;;5.40;3.63;;;;;;;;;;5006829;28;20197;-48
2023/09/15 01:29:54;;;;;;;3.17;2.97;;;;;;;;;;5003290;28;20264;-48
2023/09/15 01:32:20;;;;;;;2.80;2.60;;;;;;;;;;5003661;28;20226;-48
2023/09/15 01:34:48;;;;;;;4.17;2.60;;;;;;;;;;5007890;28;20261;-47
2023/09/15 01:37:14;;;;;;;3.23;2.93;;;;;;;;;;5003992;28;20182;-49
2023/09/15 01:39:40;;;;;;;3.77;3.47;;;;;;;;;;5006961;28;20669;-49
2023/09/15 01:42:07;;;;;;;2.90;2.70;;;;;;;;;;5006268;28;20182;-49
2023/09/15 01:44:33;;;;;;;6.90;4.43;;;;;;;;;;5003274;28;20179;-48
2023/09/15 01:46:59;;;;;;;3.00;2.80;;;;;;;;;;5001763;28;20228;-48
2023/09/15 01:49:26;;;;;;;3.00;2.80;;;;;;;;;;5002849;28;20729;-48
2023/09/15 01:51:52;;;;;;;3.40;3.10;;;;;;;;;;5002960;28;20788;-49
2023/09/15 01:54:19;;;;;;;3.10;2.80;;;;;;;;;;5004906;28;20182;-48
2023/09/15 01:56:45;;;;;;;3.40;3.13;;;;;;;;;;5011066;28;20661;-48
2023/09/15 01:59:13;;;;;;;2.97;2.77;;;;;;;;;;5005175;28;20628;-48
2023/09/15 02:01:39;;;;;;;3.30;2.87;;;;;;;;;;5008388;28;20193;-48
2023/09/15 02:04:06;;;;;;;3.60;3.03;;;;;;;;;;5006832;28;20584;-48
2023/09/15 02:06:32;;;;;;;3.23;2.60;;;;;;;;;;5008745;28;20205;-48
2023/09/15 02:08:59;;;;;;;3.47;3.07;;;;;;;;;;5006687;28;20186;-49
2023/09/15 02:11:25;;;;;;;4.20;3.43;;;;;;;;;;4990751;28;20856;-49
2023/09/15 02:13:51;;;;;;;3.37;3.00;;;;;;;;;;5006401;28;20218;-48
2023/09/15 02:16:17;;;;;;;3.23;2.93;;;;;;;;;;5009754;28;20547;-48
2023/09/15 02:18:43;;;;;;;3.07;2.87;;;;;;;;;;5009690;28;20644;-49
2023/09/15 02:21:09;;;;;;;3.00;2.80;;;;;;;;;;5008835;28;20494;-48
2023/09/15 02:23:36;;;;;;;3.00;2.80;;;;;;;;;;5006708;28;20198;-49
2023/09/15 02:26:03;;;;;;;3.60;3.30;;;;;;;;;;5006761;28;20190;-49
2023/09/15 02:28:29;;;;;;;3.30;3.00;;;;;;;;;;5008560;28;20296;-48
2023/09/15 02:30:56;;;;;;;3.27;3.00;;;;;;;;;;5008688;28;20213;-49
2023/09/15 02:33:22;;;;;;;4.03;3.50;;;;;;;;;;5007410;28;20229;-49
2023/09/15 02:35:48;;;;;;;3.13;2.93;;;;;;;;;;5007415;28;20190;-47
2023/09/15 02:38:15;;;;;;;3.30;3.00;;;;;;;;;;5007805;28;20223;-49
2023/09/15 02:40:41;;;;;;;3.40;3.10;;;;;;;;;;5006940;28;20186;-49
2023/09/15 02:43:10;;;;;;;3.03;2.83;;;;;;;;;;5008488;28;20197;-49
2023/09/15 02:45:37;;;;;;;3.63;3.07;;;;;;;;;;5002173;28;20187;-49
2023/09/15 02:48:03;;;;;;;3.27;3.03;;;;;;;;;;5008316;28;20259;-46
2023/09/15 02:50:30;;;;;;;3.20;3.00;;;;;;;;;;5007215;28;20191;-48
2023/09/15 02:52:56;;;;;;;2.70;2.50;;;;;;;;;;5008901;28;20268;-47
2023/09/15 02:55:22;;;;;;;3.67;2.97;;;;;;;;;;5009087;28;20171;-48
2023/09/15 02:57:55;;;;;;;3.20;2.90;;;;;;;;;;4990826;28;20239;-47
2023/09/15 03:00:21;;;;;;;2.87;2.67;;;;;;;;;;5007215;28;20545;-48
2023/09/15 03:02:48;;;;;;;3.10;2.90;;;;;;;;;;5007296;28;20238;-47
2023/09/15 03:05:15;;;;;;;2.90;2.60;;;;;;;;;;5007876;28;20244;-48
2023/09/15 03:07:42;;;;;;;3.13;2.93;;;;;;;;;;5008518;28;20197;-50
2023/09/15 03:10:09;;;;;;;2.83;2.60;;;;;;;;;;5009405;28;20178;-50
2023/09/15 03:12:35;;;;;;;3.17;2.87;;;;;;;;;;5008423;28;20201;-49
2023/09/15 03:15:06;;;;;;;2.90;2.70;;;;;;;;;;5007812;28;20204;-50
2023/09/15 03:17:39;;;;;;;2.73;2.53;;;;;;;;;;5009435;28;20190;-50
2023/09/15 03:20:13;;;;;;;2.87;2.60;;;;;;;;;;5001122;28;20205;-50
2023/09/15 03:22:40;;;;;;;3.30;2.77;;;;;;;;;;5006308;28;20213;-49
2023/09/15 03:25:07;;;;;;;2.93;2.60;;;;;;;;;;5007975;28;20715;-49
2023/09/15 03:27:33;;;;;;;2.70;2.50;;;;;;;;;;5007476;28;20540;-50
2023/09/15 03:29:59;;;;;;;3.50;2.30;;;;;;;;;;5003331;28;20564;-49
2023/09/15 03:32:26;;;;;;;3.77;2.80;;;;;;;;;;5003408;28;20296;-49
2023/09/15 03:34:52;;;;;;;3.07;2.77;;;;;;;;;;5006846;28;20185;-49
2023/09/15 03:37:19;;;;;;;2.93;2.70;;;;;;;;;;5008081;28;20720;-49
2023/09/15 03:39:45;;;;;;;3.20;2.90;;;;;;;;;;5008410;28;20174;-50
2023/09/15 03:42:13;;;;;;;2.80;2.60;;;;;;;;;;5007839;28;20175;-49
2023/09/15 03:44:39;;;;;;;3.00;2.60;;;;;;;;;;5008684;28;20175;-49
2023/09/15 03:47:05;;;;;;;3.27;2.97;;;;;;;;;;5008103;28;20707;-49
2023/09/15 03:49:33;;;;;;;3.10;2.67;;;;;;;;;;5008652;28;20189;-49
2023/09/15 03:51:59;;;;;;;4.27;2.50;;;;;;;;;;5005122;28;20182;-49
2023/09/15 03:54:26;;;;;;;3.73;2.90;;;;;;;;;;5003124;28;20170;-49
2023/09/15 03:56:53;;;;;;;3.53;2.67;;;;;;;;;;5007976;28;20182;-49
2023/09/15 03:59:19;;;;;;;2.93;2.47;;;;;;;;;;5007898;28;20198;-49
2023/09/15 04:01:47;;;;;;;3.37;3.10;;;;;;;;;;5007066;28;20623;-49
2023/09/15 04:04:13;;;;;;;4.27;3.03;;;;;;;;;;5005015;28;20194;-49
2023/09/15 04:06:39;;;;;;;4.47;2.70;;;;;;;;;;5007971;28;20173;-49
2023/09/15 04:09:10;;;;;;;3.77;3.43;;;;;;;;;;5007003;28;20205;-50
2023/09/15 04:11:37;;;;;;;2.70;2.50;;;;;;;;;;5008777;28;20177;-49
2023/09/15 04:14:03;;;;;;;5.03;2.53;;;;;;;;;;5005752;28;20203;-49
2023/09/15 04:16:30;;;;;;;7.73;2.73;;;;;;;;;;5007528;28;20677;-50
2023/09/15 04:18:56;;;;;;;2.43;2.23;;;;;;;;;;5008291;28;20171;-50
2023/09/15 04:21:23;;;;;;;3.67;3.37;;;;;;;;;;5006781;28;20182;-50
2023/09/15 04:23:49;;;;;;;4.07;2.77;;;;;;;;;;5006061;28;20209;-50
2023/09/15 04:26:15;;;;;;;2.70;2.50;;;;;;;;;;5008040;28;20197;-50
2023/09/15 04:28:41;;;;;;;2.60;2.40;;;;;;;;;;5007890;28;20238;-50
2023/09/15 04:31:08;;;;;;;2.60;2.40;;;;;;;;;;5002017;28;20209;-50
2023/09/15 04:33:34;;;;;;;4.03;2.70;;;;;;;;;;5008105;28;20213;-50
2023/09/15 04:36:00;;;;;;;2.67;2.47;;;;;;;;;;5007556;28;20190;-48
2023/09/15 04:38:26;;;;;;;2.80;2.60;;;;;;;;;;5006551;28;20178;-48
2023/09/15 04:40:53;;;;;;;3.43;3.13;;;;;;;;;;5007293;28;20277;-48
2023/09/15 04:43:21;;;;;;;3.13;2.63;;;;;;;;;;5002103;28;20182;-49
2023/09/15 04:45:47;;;;;;;3.07;2.77;;;;;;;;;;5004113;28;20237;-49
2023/09/15 04:48:14;;;;;;;2.57;2.37;;;;;;;;;;5004334;28;20639;-49
2023/09/15 04:50:40;;;;;;;4.23;2.63;;;;;;;;;;5003668;28;20669;-49
2023/09/15 04:53:07;;;;;;;3.90;2.90;;;;;;;;;;5002590;28;20225;-49
2023/09/15 04:55:36;;;;;;;2.80;2.50;;;;;;;;;;4978802;28;20180;-49
2023/09/15 04:58:02;;;;;;;2.57;2.20;;;;;;;;;;5004316;28;20534;-50
2023/09/15 05:00:29;;;;;;;2.83;2.60;;;;;;;;;;5004924;28;21537;-50
2023/09/15 05:02:56;;;;;;;2.50;2.30;;;;;;;;;;5005019;28;20179;-50
2023/09/15 05:05:22;;;;;;;2.77;2.43;;;;;;;;;;5002437;28;20182;-50
2023/09/15 05:07:49;;;;;;;3.20;2.43;;;;;;;;;;5001814;28;20653;-50
2023/09/15 05:10:15;;;;;;;2.70;2.50;;;;;;;;;;4986198;28;20602;-51
2023/09/15 05:12:42;;;;;;;4.03;2.53;;;;;;;;;;5000283;28;20658;-51
2023/09/15 05:15:08;;;;;;;6.00;2.70;;;;;;;;;;5005058;28;20320;-51
2023/09/15 05:17:35;;;;;;;3.40;2.67;;;;;;;;;;5001021;28;20188;-48
2023/09/15 05:20:01;;;;;;;3.23;2.70;;;;;;;;;;5004013;28;20591;-50
2023/09/15 05:22:27;;;;;;;2.87;2.60;;;;;;;;;;5000892;28;20184;-50
2023/09/15 05:24:55;;;;;;;2.83;2.60;;;;;;;;;;5006345;28;20193;-51
2023/09/15 05:27:21;;;;;;;4.37;2.70;;;;;;;;;;5006957;28;20780;-52
2023/09/15 05:29:47;;;;;;;3.50;2.67;;;;;;;;;;5005123;28;20338;-50
2023/09/15 05:32:13;;;;;;;5.77;2.93;;;;;;;;;;5003551;28;20198;-49
2023/09/15 05:34:40;;;;;;;3.93;2.90;;;;;;;;;;5006406;28;20181;-48
2023/09/15 05:37:07;;;;;;;3.40;2.67;;;;;;;;;;5005902;28;20626;-48
2023/09/15 05:39:33;;;;;;;6.27;2.97;;;;;;;;;;5006586;28;20193;-48
2023/09/15 05:42:00;;;;;;;3.50;2.70;;;;;;;;;;5009343;28;20166;-49
2023/09/15 05:44:26;;;;;;;4.10;3.30;;;;;;;;;;5008821;28;20264;-47
2023/09/15 05:46:53;;;;;;;3.63;3.13;;;;;;;;;;5008589;28;20186;-48
2023/09/15 05:49:20;;;;;;;4.33;3.03;;;;;;;;;;5008293;28;20253;-48
2023/09/15 05:51:46;;;;;;;4.03;2.70;;;;;;;;;;5006635;28;20198;-49
2023/09/15 05:54:12;;;;;;;6.43;2.90;;;;;;;;;;4988682;28;20611;-49
2023/09/15 05:56:38;;;;;;;5.23;3.13;;;;;;;;;;5007128;28;20662;-50
2023/09/15 05:59:05;;;;;;;3.60;3.10;;;;;;;;;;5009360;28;20179;-54
2023/09/15 06:01:31;;;;;;;6.83;2.90;;;;;;;;;;4992040;28;20190;-48
2023/09/15 06:03:59;;;;;;;3.73;2.57;;;;;;;;;;5009799;28;20191;-46
2023/09/15 06:06:25;;;;;;;6.83;2.90;;;;;;;;;;5011001;28;20639;-47
2023/09/15 06:08:51;;;;;;;3.67;3.03;;;;;;;;;;5000757;28;20198;-47
2023/09/15 06:11:18;;;;;;;3.23;2.90;;;;;;;;;;5006624;28;20270;-47
2023/09/15 06:13:45;;;;;;;3.50;2.97;;;;;;;;;;5007958;28;20545;-47
2023/09/15 06:16:12;;;;;;;3.17;2.87;;;;;;;;;;5007195;28;20186;-47
2023/09/15 06:18:39;;;;;;;5.50;2.93;;;;;;;;;;5009820;28;20178;-46
2023/09/15 06:21:05;;;;;;;5.77;2.57;;;;;;;;;;5008032;28;20187;-47
2023/09/15 06:23:31;;;;;;;4.40;3.07;;;;;;;;;;5007861;28;20188;-47
2023/09/15 06:25:58;;;;;;;4.67;2.93;;;;;;;;;;5010510;28;20197;-47
2023/09/15 06:28:24;;;;;;;4.80;2.93;;;;;;;;;;5009925;28;20242;-48
2023/09/15 06:30:50;;;;;;;4.37;3.20;;;;;;;;;;5010935;28;20206;-48
2023/09/15 06:33:17;;;;;;;5.93;3.10;;;;;;;;;;5009436;28;20300;-47
2023/09/15 06:35:43;;;;;;;5.33;3.30;;;;;;;;;;5006505;28;20592;-48
2023/09/15 06:38:10;;;;;;;3.03;2.70;;;;;;;;;;5008363;28;20626;-48
2023/09/15 06:40:36;;;;;;;3.60;3.20;;;;;;;;;;5009266;28;20686;-46
2023/09/15 06:43:04;;;;;;;8.03;3.03;;;;;;;;;;5008003;28;20613;-47
2023/09/15 06:45:31;;;;;;;5.10;2.80;;;;;;;;;;4993334;28;20190;-48
2023/09/15 06:48:01;;;;;;;3.57;3.27;;;;;;;;;;5009242;28;20215;-47
2023/09/15 06:50:27;;;;;;;5.07;3.10;;;;;;;;;;5009582;28;20193;-48
2023/09/15 06:52:53;;;;;;;3.63;2.87;;;;;;;;;;5009245;28;20206;-47
2023/09/15 06:55:20;;;;;;;5.23;2.73;;;;;;;;;;5011083;28;20195;-54
2023/09/15 06:57:46;;;;;;;2.83;2.63;;;;;;;;;;5009456;28;20178;-47
2023/09/15 07:00:12;;;;;;;4.97;2.77;;;;;;;;;;5010264;28;20267;-46
2023/09/15 07:02:39;;;;;;;3.37;2.80;;;;;;;;;;5010424;28;20202;-47
2023/09/15 07:05:05;;;;;;;4.13;2.97;;;;;;;;;;5008830;28;20253;-48
2023/09/15 07:07:31;;;;;;;4.93;3.40;;;;;;;;;;5008508;28;20195;-47
2023/09/15 07:09:57;;;;;;;5.00;2.57;;;;;;;;;;5010414;28;20197;-49
2023/09/15 07:12:24;;;;;;;8.00;3.00;;;;;;;;;;5010087;28;20207;-47
2023/09/15 07:14:50;;;;;;;3.03;2.73;;;;;;;;;;5009549;28;20250;-48
2023/09/15 07:17:17;;;;;;;4.60;2.97;;;;;;;;;;5002089;28;20189;-47
2023/09/15 07:19:44;;;;;;;3.60;2.83;;;;;;;;;;5007124;28;20217;-50
2023/09/15 07:22:13;;;;;;;4.97;3.30;;;;;;;;;;5000259;28;20194;-48
2023/09/15 07:24:42;;;;;;;4.83;2.70;;;;;;;;;;5002168;28;20184;-49
2023/09/15 07:27:09;;;;;;;5.83;3.20;;;;;;;;;;5007183;28;20225;-46
2023/09/15 07:29:36;;;;;;;6.40;3.60;;;;;;;;;;5009989;28;20237;-47
2023/09/15 07:32:02;;;;;;;2.93;2.63;;;;;;;;;;4988853;28;20629;-48
2023/09/15 07:34:28;;;;;;;4.80;3.30;;;;;;;;;;5009558;28;20175;-48
2023/09/15 07:36:55;;;;;;;5.20;3.00;;;;;;;;;;5009170;28;20184;-47
2023/09/15 07:39:21;;;;;;;5.73;3.20;;;;;;;;;;5011165;28;20179;-49
2023/09/15 07:41:47;;;;;;;5.87;3.00;;;;;;;;;;5009689;28;20301;-47
2023/09/15 07:44:14;;;;;;;7.37;3.60;;;;;;;;;;5009146;28;20180;-47
2023/09/15 07:46:41;;;;;;;5.63;3.10;;;;;;;;;;4991242;28;20195;-47
2023/09/15 07:49:08;;;;;;;4.70;3.43;;;;;;;;;;5008486;28;20185;-47
2023/09/15 07:51:35;;;;;;;4.50;2.90;;;;;;;;;;5008203;28;20177;-46
2023/09/15 07:54:01;;;;;;;5.50;2.97;;;;;;;;;;5008261;28;20191;-54
2023/09/15 07:56:28;;;;;;;3.90;3.10;;;;;;;;;;5008429;28;20452;-46
2023/09/15 07:58:54;;;;;;;4.83;2.93;;;;;;;;;;5008838;28;20183;-46
2023/09/15 08:01:20;;;;;;;3.93;3.07;;;;;;;;;;5008995;28;20191;-47
2023/09/15 08:03:46;;;;;;;6.70;3.03;;;;;;;;;;5007882;28;20192;-46
2023/09/15 08:06:12;;;;;;;10.00;3.33;;;;;;;;;;5008478;28;20189;-48
2023/09/15 08:08:38;;;;;;;4.30;3.33;;;;;;;;;;5008131;28;20553;-47
2023/09/15 08:11:05;;;;;;;6.43;3.27;;;;;;;;;;5006157;28;20186;-48
2023/09/15 08:13:31;;;;;;;3.83;2.70;;;;;;;;;;5004478;28;20215;-47
2023/09/15 08:15:57;;;;;;;3.10;2.50;;;;;;;;;;5004053;28;20197;-47
2023/09/15 08:18:23;;;;;;;4.40;2.80;;;;;;;;;;5007692;28;20188;-48
2023/09/15 08:20:49;;;;;;;8.07;2.80;;;;;;;;;;5006187;28;20616;-48
2023/09/15 08:23:16;;;;;;;4.53;3.10;;;;;;;;;;4988787;28;20182;-49
2023/09/15 08:25:42;;;;;;;6.23;3.23;;;;;;;;;;5009549;28;20194;-45
2023/09/15 08:28:09;;;;;;;5.20;2.50;;;;;;;;;;5005092;28;20236;-46
2023/09/15 08:30:38;;;;;;;5.47;3.07;;;;;;;;;;5009243;28;20272;-50
2023/09/15 08:33:05;;;;;;;4.13;2.63;;;;;;;;;;5004955;28;20684;-49
2023/09/15 08:35:32;;;;;;;4.10;2.57;;;;;;;;;;5008846;28;20170;-50
2023/09/15 08:37:59;;;;;;;4.10;3.00;;;;;;;;;;5008022;28;20646;-48
2023/09/15 08:40:31;;;;;;;2.50;2.30;;;;;;;;;;5002102;28;20177;-49
2023/09/15 08:42:57;;;;;;;4.20;2.67;;;;;;;;;;5008773;28;20526;-50
2023/09/15 08:45:24;;;;;;;3.43;2.90;;;;;;;;;;5009378;28;20759;-51
2023/09/15 08:47:52;;;;;;;3.23;2.33;;;;;;;;;;5008511;28;20227;-49
2023/09/15 08:50:19;;;;;;;5.50;3.00;;;;;;;;;;5008866;28;20304;-48
2023/09/15 08:52:45;;;;;;;8.50;2.93;;;;;;;;;;5007652;28;20202;-49
2023/09/15 08:55:12;;;;;;;4.17;2.90;;;;;;;;;;5002309;28;20631;-49
2023/09/15 08:57:39;;;;;;;3.40;2.77;;;;;;;;;;5004358;28;20179;-48
2023/09/15 09:00:08;;;;;;;4.37;3.10;;;;;;;;;;5007796;28;20278;-45
2023/09/15 09:02:34;;;;;;;5.97;3.03;;;;;;;;;;5006156;28;20203;-46
2023/09/15 09:05:01;;;;;;;3.67;2.73;;;;;;;;;;5007425;28;20259;-48
2023/09/15 09:07:27;;;;;;;4.43;3.00;;;;;;;;;;5006330;28;20195;-48
2023/09/15 09:09:54;;;;;;;3.37;3.10;;;;;;;;;;5007821;28;20568;-50
2023/09/15 09:12:21;;;;;;;3.97;3.00;;;;;;;;;;5007365;28;20183;-48
2023/09/15 09:14:49;;;;;;;3.57;2.97;;;;;;;;;;5006034;28;20193;-47
2023/09/15 09:17:16;;;;;;;4.53;2.93;;;;;;;;;;5007801;28;20640;-48
2023/09/15 09:19:42;;;;;;;3.00;2.70;;;;;;;;;;5007032;28;20188;-48
2023/09/15 09:22:09;;;;;;;3.20;2.90;;;;;;;;;;5005963;28;20190;-46
2023/09/15 09:24:36;;;;;;;4.27;2.80;;;;;;;;;;5007879;28;20188;-45
2023/09/15 09:27:07;;;;;;;2.93;2.63;;;;;;;;;;4983924;28;20445;-47
2023/09/15 09:29:33;;;;;;;5.97;2.80;;;;;;;;;;5007147;28;20719;-46
2023/09/15 09:32:00;;;;;;;4.63;3.20;;;;;;;;;;5006074;28;20172;-46
2023/09/15 09:34:26;;;;;;;4.73;2.90;;;;;;;;;;5002761;28;20231;-46
2023/09/15 09:36:55;;;;;;;7.97;3.23;;;;;;;;;;5006049;28;20621;-48
2023/09/15 09:39:22;;;;;;;4.53;3.10;;;;;;;;;;5002181;28;20235;-47
2023/09/15 09:41:48;;;;;;;3.10;2.80;;;;;;;;;;5008705;28;20183;-47
2023/09/15 09:44:14;;;;;;;6.17;3.13;;;;;;;;;;5008580;28;20674;-47
2023/09/15 09:46:41;;;;;;;4.30;3.20;;;;;;;;;;5008874;28;20195;-47
2023/09/15 09:49:08;;;;;;;3.53;3.03;;;;;;;;;;5002269;28;20613;-49
2023/09/15 09:51:38;;;;;;;5.17;3.30;;;;;;;;;;5005526;28;20641;-47
2023/09/15 09:54:04;;;;;;;4.50;3.20;;;;;;;;;;5007784;28;20286;-47
2023/09/15 09:56:33;;;;;;;4.67;3.07;;;;;;;;;;5006385;28;20190;-48
2023/09/15 09:59:15;;;;;;;4.00;3.17;;;;;;;;;;5005295;28;20497;-47
2023/09/15 10:01:41;;;;;;;6.33;3.20;;;;;;;;;;4999474;28;20178;-48
2023/09/15 10:04:08;;;;;;;5.67;3.30;;;;;;;;;;5004226;28;20199;-48
2023/09/15 10:06:36;;;;;;;5.30;3.60;;;;;;;;;;5002481;28;20179;-48
2023/09/15 10:09:05;;;;;;;3.00;2.80;;;;;;;;;;5002641;28;20228;-54
2023/09/15 10:11:33;;;;;;;4.47;2.93;;;;;;;;;;5003592;28;20293;-47
2023/09/15 10:14:00;;;;;;;4.43;3.60;;;;;;;;;;5004243;28;20202;-47
2023/09/15 10:16:26;;;;;;;4.17;3.10;;;;;;;;;;5004838;28;20190;-47
2023/09/15 10:18:53;;;;;;;3.73;3.07;;;;;;;;;;5006689;28;20636;-48
2023/09/15 10:21:19;;;;;;;3.90;2.83;;;;;;;;;;5008184;28;20184;-48
2023/09/15 10:23:45;;;;;;;3.17;2.60;;;;;;;;;;5006511;28;20182;-48
2023/09/15 10:26:12;;;;;;;4.43;3.33;;;;;;;;;;4986201;28;20545;-48
2023/09/15 10:28:40;;;;;;;3.20;2.90;;;;;;;;;;5006560;28;20231;-48
2023/09/15 10:31:06;;;;;;;4.53;3.47;;;;;;;;;;4999315;28;20268;-48
2023/09/15 10:33:32;;;;;;;3.73;3.40;;;;;;;;;;5008128;28;20278;-49
2023/09/15 10:36:03;;;;;;;3.63;3.33;;;;;;;;;;5006240;28;20242;-48
2023/09/15 10:38:30;;;;;;;5.07;3.70;;;;;;;;;;5008855;28;20183;-49
2023/09/15 10:41:03;;;;;;;3.23;2.80;;;;;;;;;;5009452;28;20201;-49
2023/09/15 10:43:31;;;;;;;3.40;3.10;;;;;;;;;;5009831;28;20187;-50
2023/09/15 10:45:58;;;;;;;10.73;3.67;;;;;;;;;;5008699;28;20537;-51
2023/09/15 10:48:24;;;;;;;4.47;3.40;;;;;;;;;;5007101;28;20271;-49
2023/09/15 10:50:52;;;;;;;3.20;2.90;;;;;;;;;;5004288;28;20190;-49
2023/09/15 10:53:20;;;;;;;3.80;3.40;;;;;;;;;;4984645;28;20250;-50
2023/09/15 10:55:46;;;;;;;4.80;3.20;;;;;;;;;;4984742;28;20175;-49
2023/09/15 10:58:15;;;;;;;3.67;2.77;;;;;;;;;;5005697;28;20176;-49
2023/09/15 11:00:41;;;;;;;4.40;3.40;;;;;;;;;;5005571;28;20620;-49
2023/09/15 11:03:08;;;;;;;3.20;2.90;;;;;;;;;;5007549;28;20215;-50
2023/09/15 11:05:35;;;;;;;3.30;3.00;;;;;;;;;;5006406;28;20212;-49
2023/09/15 11:08:02;;;;;;;5.50;3.40;;;;;;;;;;5005802;28;20683;-49
2023/09/15 11:10:32;;;;;;;4.00;3.33;;;;;;;;;;5008298;28;20230;-49
2023/09/15 11:12:59;;;;;;;4.30;2.97;;;;;;;;;;4989871;28;20207;-49
2023/09/15 11:15:26;;;;;;;3.63;3.17;;;;;;;;;;5005360;28;20547;-50
2023/09/15 11:17:53;;;;;;;3.60;2.60;;;;;;;;;;5006492;28;20271;-49
2023/09/15 11:20:19;;;;;;;3.57;2.93;;;;;;;;;;5006152;28;20186;-48
2023/09/15 11:22:45;;;;;;;4.37;3.60;;;;;;;;;;5006219;28;20179;-48
2023/09/15 11:25:12;;;;;;;5.07;3.07;;;;;;;;;;5008290;28;20286;-49
2023/09/15 11:27:38;;;;;;;4.33;3.57;;;;;;;;;;5002088;28;20188;-48
2023/09/15 11:30:05;;;;;;;3.00;2.80;;;;;;;;;;5006296;28;20210;-49
2023/09/15 11:32:32;;;;;;;3.87;3.03;;;;;;;;;;5006400;28;20315;-50
2023/09/15 11:35:01;;;;;;;3.77;3.03;;;;;;;;;;5004231;28;20198;-50
2023/09/15 11:37:28;;;;;;;2.93;2.73;;;;;;;;;;5005282;28;20189;-50
2023/09/15 11:39:57;;;;;;;3.20;2.83;;;;;;;;;;5004833;28;20195;-49
2023/09/15 11:42:24;;;;;;;3.00;2.70;;;;;;;;;;5004759;28;20181;-48
2023/09/15 11:44:50;;;;;;;5.63;3.20;;;;;;;;;;5007172;28;20272;-48
2023/09/15 11:47:17;;;;;;;8.17;2.80;;;;;;;;;;5004145;28;20177;-49
2023/09/15 11:49:44;;;;;;;3.57;3.27;;;;;;;;;;5002895;28;20198;-49
2023/09/15 11:52:11;;;;;;;3.77;2.70;;;;;;;;;;5003001;28;20182;-50
2023/09/15 11:54:37;;;;;;;3.57;2.77;;;;;;;;;;5001586;28;20948;-50
2023/09/15 11:57:05;;;;;;;3.33;2.63;;;;;;;;;;5002242;28;20187;-50
2023/09/15 11:59:31;;;;;;;4.23;3.83;;;;;;;;;;5009254;28;20228;-50
2023/09/15 12:02:01;;;;;;;3.40;2.50;;;;;;;;;;5009259;28;20166;-50
2023/09/15 12:04:28;;;;;;;2.83;2.63;;;;;;;;;;4993535;28;20345;-50
2023/09/15 12:06:55;;;;;;;2.80;2.60;;;;;;;;;;5002072;28;20217;-51
2023/09/15 12:09:22;;;;;;;4.07;2.60;;;;;;;;;;5005984;28;20559;-50
2023/09/15 12:11:48;;;;;;;2.50;2.30;;;;;;;;;;5006531;28;20820;-49
2023/09/15 12:14:15;;;;;;;3.00;2.70;;;;;;;;;;5003760;28;20200;-50
2023/09/15 12:16:43;;;;;;;3.03;2.67;;;;;;;;;;5008482;28;20177;-53
2023/09/15 12:19:11;;;;;;;2.30;2.13;;;;;;;;;;4992226;28;20183;-53
2023/09/15 12:21:38;;;;;;;3.13;2.63;;;;;;;;;;4997025;28;20186;-53
2023/09/15 12:24:09;;;;;;;3.37;2.83;;;;;;;;;;5008389;28;20340;-52
2023/09/15 12:26:36;;;;;;;2.67;2.47;;;;;;;;;;5009123;28;20200;-53
2023/09/15 12:29:03;;;;;;;3.60;2.90;;;;;;;;;;5008197;28;20234;-53
2023/09/15 12:31:29;;;;;;;3.10;2.60;;;;;;;;;;5008887;28;20685;-53
2023/09/15 12:33:56;;;;;;;2.40;2.20;;;;;;;;;;5008371;28;20282;-52
2023/09/15 12:36:25;;;;;;;2.70;2.27;;;;;;;;;;5008350;28;20626;-53
2023/09/15 12:38:52;;;;;;;3.17;2.50;;;;;;;;;;4989938;28;20206;-53
2023/09/15 12:41:18;;;;;;;3.33;2.57;;;;;;;;;;5008980;28;20163;-54
2023/09/15 12:43:44;;;;;;;2.97;2.43;;;;;;;;;;5008415;28;20281;-53
2023/09/15 12:46:10;;;;;;;2.50;2.10;;;;;;;;;;5008053;28;20202;-53
2023/09/15 12:48:37;;;;;;;2.70;2.50;;;;;;;;;;5008792;28;20846;-53
2023/09/15 12:51:04;;;;;;;2.70;2.50;;;;;;;;;;5008427;28;20498;-53
2023/09/15 12:53:30;;;;;;;2.30;2.10;;;;;;;;;;5001545;28;20619;-52
2023/09/15 12:55:58;;;;;;;3.00;2.13;;;;;;;;;;5009068;28;20163;-53
2023/09/15 12:58:24;;;;;;;2.80;2.60;;;;;;;;;;5008224;28;20236;-52
2023/09/15 13:00:51;;;;;;;2.57;2.00;;;;;;;;;;5006944;28;20175;-53
2023/09/15 13:03:19;;;;;;;2.20;2.10;;;;;;;;;;5004343;28;20236;-54
2023/09/15 13:05:45;;;;;;;2.40;2.23;;;;;;;;;;5008366;28;20186;-53
2023/09/15 13:08:11;;;;;;;2.77;2.53;;;;;;;;;;5000341;28;20934;-53
2023/09/15 13:10:40;;;;;;;2.73;2.53;;;;;;;;;;5008781;28;20182;-53
2023/09/15 13:13:08;;;;;;;2.77;2.53;;;;;;;;;;5007995;28;20427;-53
2023/09/15 13:15:34;;;;;;;2.07;1.97;;;;;;;;;;5008366;28;20296;-52
2023/09/15 13:18:01;;;;;;;2.57;2.37;;;;;;;;;;5005897;28;20208;-52
2023/09/15 13:20:27;;;;;;;3.10;2.43;;;;;;;;;;4989442;28;20173;-53
2023/09/15 13:22:53;;;;;;;3.23;2.60;;;;;;;;;;4988450;28;20198;-52
2023/09/15 13:25:20;;;;;;;2.60;2.40;;;;;;;;;;5008928;28;20606;-52
2023/09/15 13:27:46;;;;;;;2.70;2.50;;;;;;;;;;5005554;28;20237;-53
2023/09/15 13:30:13;;;;;;;2.40;2.20;;;;;;;;;;4989098;28;20206;-53
2023/09/15 13:32:40;;;;;;;3.60;2.50;;;;;;;;;;4996327;28;20282;-52
2023/09/15 13:35:06;;;;;;;2.63;2.40;;;;;;;;;;5008557;28;20203;-52
2023/09/15 13:37:33;;;;;;;2.60;2.20;;;;;;;;;;5006604;28;20234;-52
2023/09/15 13:39:59;;;;;;;2.80;2.60;;;;;;;;;;5008675;28;20198;-52
2023/09/15 13:42:35;;;;;;;2.37;2.20;;;;;;;;;;5007115;28;20180;-52
2023/09/15 13:45:05;;;;;;;2.37;2.17;;;;;;;;;;4999383;28;20649;-52
2023/09/15 13:47:35;;;;;;;2.60;2.40;;;;;;;;;;4993666;28;20285;-52
2023/09/15 13:50:02;;;;;;;2.03;1.93;;;;;;;;;;5011234;28;20194;-52
2023/09/15 13:52:29;;;;;;;3.20;2.30;;;;;;;;;;5010362;28;20178;-52
2023/09/15 13:54:56;;;;;;;2.93;2.73;;;;;;;;;;4992851;28;20299;-53
2023/09/15 13:57:22;;;;;;;2.73;2.53;;;;;;;;;;4995814;28;20191;-52
2023/09/15 13:59:48;;;;;;;3.53;3.33;;;;;;;;;;5012245;28;20182;-52
2023/09/15 14:02:15;;;;;;;4.03;3.77;;;;;;;;;;5011311;28;20196;-52
2023/09/15 14:04:42;;;;;;;2.50;2.30;;;;;;;;;;5012213;28;20168;-52
2023/09/15 14:07:08;;;;;;;2.50;2.30;;;;;;;;;;5007391;28;20211;-53
2023/09/15 14:09:36;;;;;;;2.90;2.37;;;;;;;;;;5011294;28;20185;-53
2023/09/15 14:12:02;;;;;;;2.73;2.50;;;;;;;;;;5011135;28;20176;-52
2023/09/15 14:14:28;;;;;;;3.22;2.40;;;;;;;;;;5011646;28;20438;-53
2023/09/15 14:16:56;;;;;;;2.50;2.30;;;;;;;;;;5011424;28;20609;-53
2023/09/15 14:19:22;;;;;;;2.50;2.30;;;;;;;;;;5011652;28;20197;-53
2023/09/15 14:21:49;;;;;;;2.60;2.40;;;;;;;;;;5010850;28;20545;-52
2023/09/15 14:24:17;;;;;;;3.00;2.80;;;;;;;;;;5010946;28;20221;-53
2023/09/15 14:26:44;;;;;;;2.20;2.10;;;;;;;;;;5011486;28;20199;-53
2023/09/15 14:29:13;;;;;;;2.73;2.40;;;;;;;;;;5011022;28;20229;-52
2023/09/15 14:31:41;;;;;;;2.87;2.30;;;;;;;;;;5011387;28;20632;-53
2023/09/15 14:34:07;;;;;;;2.83;2.63;;;;;;;;;;5010941;28;20564;-53
2023/09/15 14:36:33;;;;;;;4.13;2.60;;;;;;;;;;4999090;28;20181;-53
2023/09/15 14:38:59;;;;;;;2.60;2.40;;;;;;;;;;5007800;28;20173;-52
2023/09/15 14:41:25;;;;;;;2.40;2.20;;;;;;;;;;5009929;28;20220;-53